Time;durP1;ratioP1;P1;durP2;ratioP2;P2;SDS_P1;SDS_P2;PMS_P1;PMS_P2;Temp;Humidity;BMP_temperature;BMP_pressure;BME280_temperature;BME280_humidity;BME280_pressure;Samples;Min_cycle;Max_cycle;Signal;HPM_P1;HPM_P2
2021/12/18 00:01:19;;;;;;;14.03;9.17;;;;;;;7.09;96.42;103909.16;5047807;28;20666;-73
2021/12/18 00:03:45;;;;;;;16.80;9.87;;;;;;;7.10;96.42;103901.63;5046860;28;20751;-71
2021/12/18 00:06:11;;;;;;;17.27;9.97;;;;;;;7.10;96.52;103900.75;5045001;28;20257;-73
2021/12/18 00:08:37;;;;;;;20.93;10.63;;;;;;;7.09;96.91;103902.38;5029513;28;20190;-73
2021/12/18 00:11:03;;;;;;;19.20;11.13;;;;;;;7.10;97.02;103899.06;5029595;28;20278;-72
2021/12/18 00:13:29;;;;;;;19.17;12.20;;;;;;;7.12;96.53;103901.75;5029344;28;20210;-73
2021/12/18 00:15:54;;;;;;;20.13;11.53;;;;;;;7.10;96.90;103901.63;5029666;28;20221;-72
2021/12/18 00:18:19;;;;;;;24.80;12.77;;;;;;;7.10;96.38;103905.84;5041622;28;20200;-73
2021/12/18 00:20:45;;;;;;;19.47;11.60;;;;;;;7.11;96.97;103903.44;5049043;28;20291;-72
2021/12/18 00:23:10;;;;;;;25.93;13.87;;;;;;;7.11;96.43;103895.78;5048575;28;20185;-73
2021/12/18 00:25:36;;;;;;;22.97;12.53;;;;;;;7.11;96.74;103893.22;5034778;28;20224;-72
2021/12/18 00:28:02;;;;;;;25.70;13.57;;;;;;;7.12;97.43;103889.00;5051269;28;20185;-75
2021/12/18 00:30:27;;;;;;;27.07;14.07;;;;;;;7.13;97.42;103898.44;5043600;28;20186;-72
2021/12/18 00:32:53;;;;;;;25.40;14.10;;;;;;;7.13;96.67;103893.34;5033849;28;20178;-72
2021/12/18 00:35:18;;;;;;;28.90;15.10;;;;;;;7.12;96.82;103894.09;5046052;28;20296;-73
2021/12/18 00:37:44;;;;;;;28.97;16.07;;;;;;;7.11;96.95;103893.22;5052984;28;20269;-72
2021/12/18 00:40:18;;;;;;;39.13;18.10;;;;;;;7.13;97.23;103893.34;5044449;28;20228;-72
2021/12/18 00:42:50;;;;;;;43.03;18.63;;;;;;;7.13;97.06;103895.88;5047772;28;20280;-72
2021/12/18 00:45:17;;;;;;;42.23;20.53;;;;;;;7.12;97.15;103889.00;5052342;28;20205;-72
2021/12/18 00:47:44;;;;;;;41.80;19.73;;;;;;;7.13;97.17;103888.22;5033576;28;20281;-71
2021/12/18 00:50:17;;;;;;;45.90;20.57;;;;;;;7.13;97.48;103890.78;5043833;28;20301;-72
2021/12/18 00:52:43;;;;;;;43.53;20.20;;;;;;;7.13;97.91;103889.13;5048044;28;20186;-72
2021/12/18 00:55:09;;;;;;;49.07;20.83;;;;;;;7.13;97.58;103883.13;5034880;28;20232;-71
2021/12/18 00:57:36;;;;;;;48.83;21.97;;;;;;;7.12;98.38;103879.72;5047199;28;20717;-71
2021/12/18 01:00:03;;;;;;;47.30;21.63;;;;;;;7.13;98.46;103885.69;5034874;28;20198;-71
2021/12/18 01:02:30;;;;;;;52.07;22.23;;;;;;;7.13;97.82;103878.03;5033119;28;20679;-71
2021/12/18 01:04:55;;;;;;;46.30;21.97;;;;;;;7.13;98.36;103883.13;5045051;28;20699;-72
2021/12/18 01:07:21;;;;;;;46.23;21.07;;;;;;;7.12;98.32;103882.28;5051171;28;20193;-71
2021/12/18 01:12:49;;;;;;;38.73;18.93;;;;;;;7.13;98.04;103890.78;5030440;28;20277;-71
2021/12/18 01:15:25;;;;;;;37.50;18.43;;;;;;;7.13;98.33;103899.34;5042619;28;20695;-72
2021/12/18 01:23:22;;;;;;;28.63;14.93;;;;;;;7.13;98.04;103891.69;5032483;28;20560;-71
2021/12/18 01:25:48;;;;;;;25.77;13.50;;;;;;;7.12;98.75;103892.47;5044040;28;20204;-72
2021/12/18 01:28:13;;;;;;;27.40;13.00;;;;;;;7.09;98.72;103894.75;5052214;28;20190;-72
2021/12/18 01:30:38;;;;;;;22.90;14.07;;;;;;;7.10;98.26;103888.00;5052469;28;20231;-71
2021/12/18 01:33:04;;;;;;;24.23;14.77;;;;;;;7.10;97.85;103883.78;5045106;28;20787;-74
2021/12/18 01:35:29;;;;;;;22.30;13.00;;;;;;;7.10;97.49;103883.78;5042954;28;20687;-73
2021/12/18 01:37:55;;;;;;;23.57;14.50;;;;;;;7.09;97.92;103882.00;5042912;28;20236;-71
2021/12/18 01:40:23;;;;;;;21.97;13.47;;;;;;;7.07;98.00;103878.47;5051762;28;20185;-72
2021/12/18 01:43:48;;;;;;;25.03;13.70;;;;;;;7.08;98.34;103871.69;5050703;28;20284;-71
2021/12/18 01:51:46;;;;;;;24.20;13.80;;;;;;;7.07;97.65;103865.72;5052049;28;20205;-71
2021/12/18 01:54:14;;;;;;;22.03;12.00;;;;;;;7.07;97.81;103870.81;5050497;28;20209;-72
2021/12/18 01:56:39;;;;;;;23.03;11.83;;;;;;;7.05;98.00;103868.91;5051938;28;20239;-73
2021/12/18 01:59:04;;;;;;;22.07;11.83;;;;;;;7.06;98.19;103865.59;5051781;28;20198;-73
2021/12/18 02:01:30;;;;;;;18.60;10.77;;;;;;;7.05;97.53;103861.28;5051932;28;20198;-72
2021/12/18 02:03:55;;;;;;;16.97;9.77;;;;;;;7.04;98.23;103868.00;5051680;28;20206;-71
2021/12/18 02:06:22;;;;;;;18.17;9.40;;;;;;;7.05;97.39;103859.59;5050476;28;20273;-72
2021/12/18 02:08:47;;;;;;;16.63;9.73;;;;;;;7.05;97.78;103859.59;5051558;28;20194;-72
2021/12/18 02:21:44;;;;;;;20.07;11.70;;;;;;;7.08;98.36;103871.69;5031742;28;20177;-74
2021/12/18 02:24:10;;;;;;;22.07;11.83;;;;;;;7.07;98.01;103860.63;5031235;28;20683;-73
2021/12/18 02:26:36;;;;;;;24.83;12.37;;;;;;;7.07;97.91;103860.63;5042592;28;20189;-72
2021/12/18 02:29:03;;;;;;;28.43;12.47;;;;;;;7.07;98.73;103865.72;5051091;28;20194;-74
2021/12/18 02:31:30;;;;;;;30.87;15.23;;;;;;;7.07;98.18;103865.72;5051352;28;20311;-72
2021/12/18 02:33:56;;;;;;;32.00;16.30;;;;;;;7.07;98.54;103863.16;5051292;28;20194;-73
2021/12/18 02:36:25;;;;;;;28.73;15.13;;;;;;;7.08;97.85;103866.59;5051095;28;20713;-74
2021/12/18 02:41:30;;;;;;;30.97;15.77;;;;;;;7.08;98.21;103859.84;5051179;28;20177;-73
2021/12/18 02:43:59;;;;;;;30.67;15.80;;;;;;;7.09;97.99;103850.56;5051095;28;20205;-73
2021/12/18 02:46:24;;;;;;;32.33;16.00;;;;;;;7.09;97.61;103851.44;5050964;28;20606;-74
2021/12/18 02:48:52;;;;;;;31.47;16.17;;;;;;;7.10;97.48;103862.53;5050797;28;20217;-74
2021/12/18 02:51:20;;;;;;;32.67;15.97;;;;;;;7.10;98.44;103858.31;5049787;28;20208;-72
2021/12/18 02:53:51;;;;;;;34.50;15.17;;;;;;;7.10;97.58;103853.22;5050736;28;20584;-72
2021/12/18 02:56:23;;;;;;;32.10;14.50;;;;;;;7.09;98.20;103858.22;5050841;28;20240;-74
2021/12/18 02:58:50;;;;;;;23.80;12.23;;;;;;;7.09;97.56;103845.47;5050634;28;20243;-73
2021/12/18 03:01:21;;;;;;;26.13;11.63;;;;;;;7.08;97.58;103841.13;5050847;28;20178;-71
2021/12/18 03:03:47;;;;;;;24.30;11.97;;;;;;;7.10;97.50;103840.47;5050457;28;20206;-74
2021/12/18 03:27:15;;;;;;;26.13;12.63;;;;;;;7.11;98.08;103826.09;5030649;28;20229;-74
2021/12/18 03:29:40;;;;;;;18.83;11.07;;;;;;;7.10;98.09;103817.53;5030499;28;20599;-72
2021/12/18 03:32:06;;;;;;;22.07;11.50;;;;;;;7.09;98.14;103808.13;5029188;28;20273;-72
2021/12/18 03:34:31;;;;;;;21.67;11.17;;;;;;;7.08;98.65;103803.81;5030172;28;20214;-73
2021/12/18 03:36:56;;;;;;;17.60;10.90;;;;;;;7.07;98.56;103796.94;5030145;28;20671;-72
2021/12/18 03:39:22;;;;;;;19.43;10.97;;;;;;;7.08;98.86;103808.00;5029899;28;20580;-72
2021/12/18 03:41:47;;;;;;;21.70;10.97;;;;;;;7.08;98.23;103808.91;5030094;28;20572;-73
2021/12/18 03:44:12;;;;;;;20.03;10.63;;;;;;;7.09;98.29;103810.69;5029973;28;20202;-72
2021/12/18 03:46:38;;;;;;;19.17;10.17;;;;;;;7.09;98.82;103812.34;5028584;28;20251;-71
2021/12/18 03:49:03;;;;;;;20.50;10.47;;;;;;;7.09;98.41;103808.13;5029856;28;20178;-72
2021/12/18 03:51:28;;;;;;;19.33;9.23;;;;;;;7.11;99.55;103808.25;5029853;28;20193;-74
2021/12/18 03:53:54;;;;;;;17.07;8.43;;;;;;;7.09;98.40;103807.25;5029765;28;20264;-73
2021/12/18 03:56:19;;;;;;;14.73;7.93;;;;;;;7.11;99.65;103803.16;5029763;28;20617;-72
2021/12/18 03:58:45;;;;;;;15.63;8.20;;;;;;;7.10;99.11;103806.47;5029657;28;20547;-74
2021/12/18 04:01:10;;;;;;;15.07;7.97;;;;;;;7.11;98.50;103798.06;5029601;28;20225;-72
2021/12/18 04:03:35;;;;;;;16.37;8.30;;;;;;;7.11;98.96;103796.41;5029533;28;20237;-71
2021/12/18 04:06:01;;;;;;;13.47;7.23;;;;;;;7.11;99.45;103787.88;5029679;28;20182;-72
2021/12/18 04:08:26;;;;;;;14.10;7.00;;;;;;;7.09;98.72;103787.75;5029349;28;20185;-74
2021/12/18 04:10:51;;;;;;;13.77;7.03;;;;;;;7.10;99.10;103784.41;5029729;28;20968;-73
2021/12/18 04:13:17;;;;;;;14.73;7.20;;;;;;;7.11;98.69;103796.41;5029443;28;20580;-72
2021/12/18 04:15:42;;;;;;;12.43;6.37;;;;;;;7.12;98.54;103795.66;5029600;28;20260;-71
2021/12/18 04:18:08;;;;;;;12.53;6.37;;;;;;;7.12;99.58;103790.56;5029411;28;20186;-72
2021/12/18 04:20:33;;;;;;;12.10;6.53;;;;;;;7.14;99.02;103786.44;5029573;28;20178;-72
2021/12/18 04:22:59;;;;;;;11.60;7.00;;;;;;;7.14;99.25;103781.34;5029495;28;20589;-73
2021/12/18 04:25:24;;;;;;;11.20;6.13;;;;;;;7.15;98.79;103782.25;5029395;28;20705;-71
2021/12/18 04:27:50;;;;;;;10.90;5.97;;;;;;;7.14;99.74;103777.94;5029486;28;20185;-71
2021/12/18 04:30:15;;;;;;;11.63;6.70;;;;;;;7.14;99.48;103783.03;5029482;28;20265;-72
2021/12/18 04:32:41;;;;;;;12.57;6.10;;;;;;;7.15;99.92;103779.72;5029621;28;20682;-71
2021/12/18 04:35:07;;;;;;;12.50;6.83;;;;;;;7.15;98.66;103778.06;5029520;28;20734;-72
2021/12/18 04:37:32;;;;;;;10.63;7.40;;;;;;;7.18;98.99;103779.97;5029521;28;20250;-71
2021/12/18 04:39:58;;;;;;;12.43;7.00;;;;;;;7.16;98.98;103781.50;5029176;28;20603;-73
2021/12/18 04:42:23;;;;;;;14.23;7.90;;;;;;;7.17;98.96;103784.16;5029468;28;20190;-71
2021/12/18 04:44:48;;;;;;;14.73;8.63;;;;;;;7.16;98.99;103777.28;5029205;28;20683;-71
2021/12/18 04:47:14;;;;;;;13.37;8.10;;;;;;;7.17;99.93;103779.06;5029384;28;20182;-72
2021/12/18 04:49:39;;;;;;;16.97;9.17;;;;;;;7.17;99.13;103778.16;5029142;28;20187;-71
2021/12/18 04:52:05;;;;;;;16.53;9.33;;;;;;;7.17;99.35;103770.53;5037523;28;20208;-71
2021/12/18 04:54:31;;;;;;;18.30;11.50;;;;;;;7.18;99.14;103770.66;5043030;28;20785;-73
2021/12/18 04:56:57;;;;;;;19.33;11.13;;;;;;;7.20;99.42;103776.78;5048606;28;20572;-72
2021/12/18 04:59:22;;;;;;;20.50;11.10;;;;;;;7.21;99.26;103775.09;5029042;28;20194;-71
2021/12/18 05:01:50;;;;;;;19.80;10.83;;;;;;;7.20;99.94;103776.78;5027890;28;20205;-71
2021/12/18 05:04:15;;;;;;;18.07;11.13;;;;;;;7.21;99.55;103770.91;5029088;28;20566;-72
2021/12/18 05:06:44;;;;;;;17.50;10.20;;;;;;;7.21;98.86;103765.81;5035632;28;20194;-73
2021/12/18 05:09:10;;;;;;;18.20;10.93;;;;;;;7.23;99.25;103773.59;5043209;28;20223;-73
2021/12/18 05:11:35;;;;;;;18.83;11.07;;;;;;;7.22;99.61;103770.13;5036273;28;20190;-72
2021/12/18 05:14:01;;;;;;;20.83;11.17;;;;;;;7.24;99.67;103768.56;5046234;28;20213;-73
2021/12/18 05:16:27;;;;;;;17.10;11.30;;;;;;;7.26;99.07;103766.16;5032786;28;20272;-73
2021/12/18 05:18:52;;;;;;;17.70;10.30;;;;;;;7.26;99.40;103761.97;5037825;28;20269;-71
2021/12/18 05:21:17;;;;;;;19.40;12.27;;;;;;;7.25;99.62;103762.75;5052669;28;20359;-71
2021/12/18 05:23:43;;;;;;;19.50;11.70;;;;;;;7.27;98.63;103767.97;5052419;28;20653;-73
2021/12/18 05:26:08;;;;;;;21.30;13.30;;;;;;;7.26;98.94;103750.88;5052710;28;20644;-71
2021/12/18 05:28:33;;;;;;;19.67;12.90;;;;;;;7.28;98.68;103764.63;5047594;28;20706;-71
2021/12/18 05:30:59;;;;;;;18.63;12.00;;;;;;;7.28;99.09;103765.50;5052486;28;20268;-72
2021/12/18 05:33:24;;;;;;;18.93;12.33;;;;;;;7.28;99.01;103755.31;5050950;28;20202;-72
2021/12/18 05:35:49;;;;;;;16.37;11.10;;;;;;;7.30;99.08;103760.53;5032541;28;20297;-72
2021/12/18 05:38:15;;;;;;;17.27;9.77;;;;;;;7.28;99.08;103752.75;5032240;28;20232;-71
2021/12/18 05:40:40;;;;;;;15.23;9.10;;;;;;;7.28;99.24;103747.66;5032380;28;20208;-71
2021/12/18 05:43:07;;;;;;;11.23;7.97;;;;;;;7.32;98.83;103757.34;5038035;28;20193;-74
2021/12/18 05:45:33;;;;;;;8.33;6.43;;;;;;;7.31;99.00;103754.66;5054728;28;20185;-71
2021/12/18 05:47:58;;;;;;;8.07;6.03;;;;;;;7.31;98.60;103744.47;5069990;28;20192;-72
2021/12/18 05:50:28;;;;;;;7.63;5.53;;;;;;;7.32;98.60;103743.72;5058242;28;20675;-71
2021/12/18 05:52:55;;;;;;;7.33;5.63;;;;;;;7.30;98.18;103743.59;5059438;28;20767;-73
2021/12/18 05:55:23;;;;;;;7.37;5.87;;;;;;;7.33;98.38;103740.41;5066409;28;20304;-74
2021/12/18 05:57:49;;;;;;;9.27;6.93;;;;;;;7.32;98.53;103738.63;5071780;28;20239;-76
2021/12/18 06:00:15;;;;;;;8.13;6.40;;;;;;;7.32;98.55;103744.59;5052630;28;20193;-72
2021/12/18 06:02:40;;;;;;;10.20;7.80;;;;;;;7.32;98.07;103743.72;5051880;28;20185;-72
2021/12/18 06:05:07;;;;;;;10.73;7.60;;;;;;;7.33;98.05;103740.41;5051633;28;20206;-72
2021/12/18 06:07:43;;;;;;;10.87;8.53;;;;;;;7.31;97.67;103742.81;5033745;28;20281;-71
2021/12/18 06:10:09;;;;;;;12.63;10.23;;;;;;;7.32;98.38;103738.63;5051610;28;20227;-72
2021/12/18 06:12:34;;;;;;;14.60;11.30;;;;;;;7.31;98.23;103741.94;5051691;28;20197;-73
2021/12/18 06:15:00;;;;;;;12.57;9.20;;;;;;;7.31;98.11;103749.56;5050230;28;20305;-71
2021/12/18 06:17:25;;;;;;;9.33;6.77;;;;;;;7.28;98.22;103752.75;5051496;28;20210;-72
2021/12/18 06:19:50;;;;;;;6.60;4.13;;;;;;;7.26;97.49;103749.22;5052409;28;20185;-73
2021/12/18 06:22:16;;;;;;;5.87;3.87;;;;;;;7.28;97.08;103745.13;5051325;28;20220;-73
2021/12/18 06:24:41;;;;;;;7.23;4.53;;;;;;;7.29;97.44;103738.38;5035021;28;20214;-71
2021/12/18 06:27:07;;;;;;;7.17;4.80;;;;;;;7.29;96.67;103738.38;5031562;28;20659;-72
2021/12/18 06:29:33;;;;;;;6.93;4.27;;;;;;;7.28;97.31;103732.38;5031313;28;20277;-72
2021/12/18 06:31:59;;;;;;;6.00;3.97;;;;;;;7.27;96.07;103740.81;5031319;28;20194;-72
2021/12/18 06:34:24;;;;;;;4.13;2.90;;;;;;;7.26;95.42;103731.38;5031161;28;20209;-72
2021/12/18 06:36:50;;;;;;;4.03;2.77;;;;;;;7.28;95.86;103737.47;5031215;28;20182;-72
2021/12/18 06:39:15;;;;;;;3.70;2.27;;;;;;;7.26;94.96;103733.94;5030974;28;20229;-72
2021/12/18 06:41:40;;;;;;;2.83;2.00;;;;;;;7.27;94.48;103740.81;5031325;28;20190;-71
2021/12/18 06:44:06;;;;;;;2.20;1.77;;;;;;;7.26;94.41;103745.78;5031057;28;20237;-72
2021/12/18 06:46:32;;;;;;;2.40;1.70;;;;;;;7.27;93.93;103747.56;5043589;28;20186;-72
2021/12/18 06:48:57;;;;;;;2.07;1.50;;;;;;;7.26;94.28;103746.69;5030810;28;20332;-71
2021/12/18 06:51:22;;;;;;;1.90;1.60;;;;;;;7.24;93.64;103739.69;5035075;28;20182;-71
2021/12/18 06:53:48;;;;;;;2.73;1.93;;;;;;;7.25;93.97;103742.34;5049730;28;20229;-74
2021/12/18 06:56:13;;;;;;;2.80;2.37;;;;;;;7.26;94.42;103751.78;5044359;28;20595;-71
2021/12/18 06:58:39;;;;;;;5.00;3.17;;;;;;;7.23;94.12;103748.97;5038960;28;20188;-72
2021/12/18 07:01:05;;;;;;;3.73;2.80;;;;;;;7.21;94.37;103753.06;5038527;28;20194;-73
2021/12/18 07:03:30;;;;;;;2.57;2.17;;;;;;;7.19;94.90;103751.16;5045714;28;20210;-71
2021/12/18 07:05:56;;;;;;;3.23;2.40;;;;;;;7.18;95.27;103752.81;5031720;28;20186;-72
2021/12/18 07:08:21;;;;;;;3.33;2.47;;;;;;;7.17;95.40;103751.03;5035913;28;20190;-72
2021/12/18 07:10:47;;;;;;;3.23;2.20;;;;;;;7.16;95.07;103751.81;5017664;28;20182;-71
2021/12/18 07:13:13;;;;;;;2.87;2.20;;;;;;;7.15;95.42;103746.59;5032640;28;20186;-71
2021/12/18 07:15:39;;;;;;;3.17;2.47;;;;;;;7.19;95.02;103748.63;5046792;28;20616;-71
2021/12/18 07:18:04;;;;;;;4.70;3.23;;;;;;;7.16;95.80;103743.28;5046446;28;20213;-71
2021/12/18 07:20:31;;;;;;;5.53;3.57;;;;;;;7.16;95.74;103749.28;5039180;28;20626;-71
2021/12/18 07:22:56;;;;;;;7.43;4.63;;;;;;;7.16;96.03;103746.72;5045960;28;20275;-71
2021/12/18 07:25:22;;;;;;;8.43;5.23;;;;;;;7.16;96.00;103746.72;5033351;28;20292;-73
2021/12/18 07:27:47;;;;;;;9.47;5.83;;;;;;;7.35;96.08;103741.41;5033760;28;20186;-69
2021/12/18 07:30:13;;;;;;;9.07;6.00;;;;;;;7.40;95.85;103735.91;5050472;28;20221;-68
2021/12/18 07:32:39;;;;;;;11.07;7.37;;;;;;;7.45;95.86;103742.25;5050178;28;20185;-68
2021/12/18 07:35:06;;;;;;;11.87;8.40;;;;;;;7.46;96.03;103740.59;5050025;28;20214;-68
2021/12/18 07:37:32;;;;;;;12.87;8.83;;;;;;;7.49;95.99;103745.91;5049071;28;20272;-68
2021/12/18 07:39:57;;;;;;;14.50;9.97;;;;;;;7.42;94.92;103741.13;5046680;28;20209;-72
2021/12/18 07:42:23;;;;;;;12.77;9.57;;;;;;;7.38;95.60;103744.19;5030053;28;20670;-72
2021/12/18 07:44:48;;;;;;;19.00;11.70;;;;;;;7.37;95.15;103743.31;5029900;28;20697;-71
2021/12/18 07:47:14;;;;;;;14.60;10.00;;;;;;;7.31;95.88;103745.38;5029953;28;20182;-72
2021/12/18 07:49:39;;;;;;;14.33;10.33;;;;;;;7.28;95.46;103737.47;5030447;28;20702;-75
2021/12/18 07:52:06;;;;;;;13.23;8.60;;;;;;;7.28;94.93;103739.16;5048023;28;20263;-73
2021/12/18 07:54:33;;;;;;;8.53;5.83;;;;;;;7.25;94.79;103744.91;5049745;28;20229;-73
2021/12/18 07:56:59;;;;;;;6.70;4.97;;;;;;;7.29;94.12;103746.03;5049585;28;20185;-73
2021/12/18 07:59:24;;;;;;;7.77;6.10;;;;;;;7.28;94.91;103742.56;5049384;28;20178;-73
2021/12/18 08:01:50;;;;;;;8.70;5.67;;;;;;;7.27;94.68;103738.25;5049448;28;20189;-72
2021/12/18 08:04:15;;;;;;;7.93;5.70;;;;;;;7.27;94.65;103743.34;5048698;28;21000;-72
2021/12/18 08:06:40;;;;;;;8.17;5.43;;;;;;;7.27;94.68;103742.47;5048734;28;20208;-75
2021/12/18 08:09:06;;;;;;;7.83;5.70;;;;;;;7.25;95.23;103739.81;5049693;28;20181;-74
2021/12/18 08:11:31;;;;;;;8.33;5.60;;;;;;;7.25;95.05;103741.44;5050425;28;20185;-73
2021/12/18 08:13:56;;;;;;;8.83;6.00;;;;;;;7.26;94.74;103741.59;5050729;28;20220;-73
2021/12/18 08:16:22;;;;;;;9.80;6.50;;;;;;;7.26;94.71;103736.47;5050645;28;20210;-73
2021/12/18 08:18:47;;;;;;;9.00;6.27;;;;;;;7.26;95.66;103739.03;5049850;28;20699;-73
2021/12/18 08:21:14;;;;;;;12.00;7.83;;;;;;;7.27;95.11;103738.25;5049561;28;20185;-73
2021/12/18 08:23:39;;;;;;;11.40;7.77;;;;;;;7.27;95.45;103733.16;5048295;28;20209;-75
2021/12/18 08:26:04;;;;;;;12.67;8.53;;;;;;;7.26;95.83;103730.47;5049377;28;20185;-73
2021/12/18 08:28:30;;;;;;;19.13;9.77;;;;;;;7.28;95.48;103723.88;5049574;28;20217;-73
2021/12/18 08:30:55;;;;;;;16.80;10.67;;;;;;;7.27;95.34;103733.16;5049551;28;20284;-74
2021/12/18 08:33:21;;;;;;;14.90;9.90;;;;;;;7.28;95.81;103732.38;5049419;28;20182;-72
2021/12/18 08:35:46;;;;;;;17.23;10.40;;;;;;;7.28;97.03;103732.38;5049621;28;20232;-74
2021/12/18 08:38:11;;;;;;;15.47;9.93;;;;;;;7.31;96.98;103736.81;5049111;28;20212;-73
2021/12/18 08:40:37;;;;;;;12.70;9.17;;;;;;;7.32;96.78;103733.53;5048153;28;20238;-74
2021/12/18 08:43:02;;;;;;;14.57;9.77;;;;;;;7.30;96.98;103728.31;5049069;28;20192;-74
2021/12/18 08:45:29;;;;;;;12.33;9.63;;;;;;;7.30;97.90;103738.50;5049050;28;20244;-73
2021/12/18 08:47:55;;;;;;;13.13;9.87;;;;;;;7.29;97.36;103724.00;5047609;28;20682;-72
2021/12/18 08:50:22;;;;;;;11.93;9.33;;;;;;;7.30;97.67;103733.41;5052620;28;20284;-73
2021/12/18 08:52:48;;;;;;;10.83;9.47;;;;;;;7.32;98.33;103729.31;5042438;28;20237;-73
2021/12/18 08:55:15;;;;;;;12.53;9.67;;;;;;;7.31;98.02;103719.88;5053225;28;20216;-73
2021/12/18 08:57:41;;;;;;;13.83;10.27;;;;;;;7.32;97.44;103721.66;5053111;28;20293;-72
2021/12/18 09:00:09;;;;;;;12.93;9.57;;;;;;;7.34;97.98;103727.78;5052623;28;20283;-73
2021/12/18 09:02:36;;;;;;;13.37;9.50;;;;;;;7.34;98.05;103720.16;5052280;28;20189;-72
2021/12/18 09:05:02;;;;;;;14.60;9.90;;;;;;;7.36;97.72;103720.25;5052803;28;20224;-71
2021/12/18 09:07:28;;;;;;;13.37;9.70;;;;;;;7.35;98.51;103711.72;5052950;28;20209;-72
2021/12/18 09:09:53;;;;;;;14.10;9.63;;;;;;;7.34;97.97;103712.50;5052567;28;20717;-73
2021/12/18 09:12:19;;;;;;;9.90;8.23;;;;;;;7.37;97.49;103716.94;5052560;28;20221;-74
2021/12/18 09:14:44;;;;;;;10.73;8.57;;;;;;;7.38;97.76;103709.38;5052278;28;20271;-71
2021/12/18 09:17:09;;;;;;;7.40;6.20;;;;;;;7.39;97.38;103707.75;5051568;28;20213;-72
2021/12/18 09:19:36;;;;;;;8.13;5.43;;;;;;;7.39;97.63;103707.75;5051104;28;20556;-73
2021/12/18 09:22:04;;;;;;;7.10;5.20;;;;;;;7.42;97.87;103711.41;5052468;28;20225;-75
2021/12/18 09:24:29;;;;;;;5.13;4.63;;;;;;;7.41;98.37;103707.09;5052389;28;20236;-75
2021/12/18 09:26:55;;;;;;;7.57;4.63;;;;;;;7.41;97.06;103707.09;5050923;28;20666;-72
2021/12/18 09:29:20;;;;;;;5.13;4.47;;;;;;;7.44;97.73;103714.09;5052311;28;20232;-72
2021/12/18 09:31:45;;;;;;;5.10;4.13;;;;;;;7.43;97.13;103704.66;5052285;28;20201;-73
2021/12/18 09:34:11;;;;;;;6.13;3.77;;;;;;;7.44;96.99;103703.88;5052154;28;20201;-72
2021/12/18 09:36:36;;;;;;;4.27;3.57;;;;;;;7.47;98.07;103702.47;5052269;28;20447;-72
2021/12/18 09:39:03;;;;;;;4.40;3.80;;;;;;;7.45;97.00;103711.66;5052008;28;20193;-73
2021/12/18 09:41:29;;;;;;;4.73;3.80;;;;;;;7.47;97.12;103702.47;5052052;28;20189;-72
2021/12/18 09:43:54;;;;;;;5.50;4.70;;;;;;;7.50;96.81;103704.34;5051767;28;20686;-73
2021/12/18 09:46:19;;;;;;;5.03;3.90;;;;;;;7.49;96.42;103700.94;5052043;28;20182;-72
2021/12/18 09:48:45;;;;;;;7.03;5.60;;;;;;;7.49;97.55;103693.28;5051852;28;20189;-73
2021/12/18 09:51:22;;;;;;;10.10;6.93;;;;;;;7.47;97.06;103686.28;5038456;28;20182;-73
2021/12/18 09:53:48;;;;;;;9.77;8.77;;;;;;;7.47;96.36;103682.06;5051913;28;20209;-73
2021/12/18 09:56:14;;;;;;;10.17;8.33;;;;;;;7.52;96.22;103687.53;5051758;28;20667;-74
2021/12/18 09:58:39;;;;;;;12.00;9.97;;;;;;;7.48;96.57;103681.31;5050342;28;20231;-74
2021/12/18 10:01:05;;;;;;;11.23;9.20;;;;;;;7.48;96.24;103681.31;5051096;28;20185;-72
2021/12/18 10:04:04;;;;;;;11.20;8.33;;;;;;;7.50;95.28;103681.41;5034830;28;20194;-73
2021/12/18 10:06:33;;;;;;;9.67;6.47;;;;;;;7.46;96.06;103680.28;5050499;28;20753;-72
2021/12/18 10:08:59;;;;;;;8.70;5.77;;;;;;;7.47;95.41;103689.72;5038942;28;20253;-73
2021/12/18 10:11:24;;;;;;;7.20;5.90;;;;;;;7.49;95.17;103687.28;5031605;28;20182;-73
2021/12/18 10:13:55;;;;;;;6.90;5.23;;;;;;;7.49;96.27;103679.63;5031677;28;20210;-72
2021/12/18 10:16:22;;;;;;;9.77;7.73;;;;;;;7.47;94.81;103676.97;5030290;28;20214;-73
2021/12/18 10:18:50;;;;;;;12.27;8.40;;;;;;;7.46;95.79;103675.19;5031531;28;20214;-73
2021/12/18 10:21:28;;;;;;;11.87;8.53;;;;;;;7.47;95.65;103676.09;5044610;28;20189;-74
2021/12/18 10:23:54;;;;;;;11.60;9.00;;;;;;;7.48;95.02;103672.78;5051362;28;20702;-73
2021/12/18 10:26:37;;;;;;;11.90;9.63;;;;;;;7.50;96.19;103666.13;5051374;28;20182;-73
2021/12/18 10:29:05;;;;;;;12.20;9.47;;;;;;;7.50;96.40;103667.03;5053027;28;20189;-72
2021/12/18 10:31:44;;;;;;;12.30;8.60;;;;;;;7.49;96.52;103661.78;5071339;28;20192;-72
2021/12/18 10:34:20;;;;;;;12.07;9.17;;;;;;;7.51;96.22;103658.59;5071285;28;20254;-74
2021/12/18 10:37:10;;;;;;;13.47;8.97;;;;;;;7.52;96.43;103652.75;5071314;28;20239;-74
2021/12/18 10:39:38;;;;;;;11.80;8.80;;;;;;;7.54;97.15;103651.19;5071408;28;20740;-72
2021/12/18 10:42:21;;;;;;;11.60;8.80;;;;;;;7.55;96.92;103644.44;5071137;28;20555;-71
2021/12/18 10:45:14;;;;;;;12.00;8.77;;;;;;;7.58;97.20;103645.56;5071183;28;20212;-72
2021/12/18 10:47:55;;;;;;;11.67;8.90;;;;;;;7.60;96.46;103640.59;5071088;28;20174;-72
2021/12/18 10:50:32;;;;;;;12.73;9.80;;;;;;;7.62;96.46;103639.94;5070776;28;20199;-73
2021/12/18 10:53:08;;;;;;;15.80;11.43;;;;;;;7.64;96.33;103642.59;5070955;28;20679;-72
2021/12/18 10:55:34;;;;;;;14.33;10.63;;;;;;;7.66;95.95;103635.94;5070659;28;20265;-74
2021/12/18 10:58:02;;;;;;;13.60;10.27;;;;;;;7.67;96.56;103633.50;5055432;28;20740;-72
2021/12/18 11:00:37;;;;;;;19.60;12.23;;;;;;;7.67;96.53;103636.06;5050841;28;20239;-73
2021/12/18 11:03:25;;;;;;;17.33;12.87;;;;;;;7.72;96.48;103622.00;5050536;28;20181;-72
2021/12/18 11:06:07;;;;;;;19.90;12.70;;;;;;;7.74;96.59;103620.44;5050699;28;20257;-71
2021/12/18 11:08:37;;;;;;;19.63;13.00;;;;;;;7.77;96.00;103618.13;5049039;28;20193;-73
2021/12/18 11:13:38;;;;;;;17.33;12.40;;;;;;;7.79;96.17;103615.69;5049690;28;20288;-72
2021/12/18 11:13:50;;;;;;;18.80;12.50;;;;;;;7.84;96.81;103611.81;5050272;28;20209;-72
2021/12/18 11:16:18;;;;;;;18.07;11.67;;;;;;;7.85;95.94;103601.75;5050460;28;20266;-71
2021/12/18 11:18:45;;;;;;;16.67;11.77;;;;;;;7.87;95.40;103600.16;5049000;28;20208;-72
2021/12/18 11:21:11;;;;;;;17.10;11.23;;;;;;;7.90;96.05;103599.50;5050401;28;20962;-72
2021/12/18 11:23:48;;;;;;;15.90;10.80;;;;;;;7.93;96.36;103599.75;5038270;28;20629;-72
2021/12/18 11:26:14;;;;;;;19.73;11.70;;;;;;;7.95;95.41;103599.09;5030606;28;20538;-74
2021/12/18 11:28:44;;;;;;;16.47;11.10;;;;;;;7.96;95.54;103600.84;5038758;28;20197;-73
2021/12/18 11:31:11;;;;;;;16.30;10.83;;;;;;;7.98;95.08;103593.31;5004040;28;20233;-75
2021/12/18 11:33:38;;;;;;;18.83;10.43;;;;;;;8.01;94.92;103580.81;5049220;28;20243;-73
2021/12/18 11:36:04;;;;;;;18.53;10.70;;;;;;;8.03;95.08;103580.13;5048773;28;20220;-73
2021/12/18 11:38:32;;;;;;;16.10;10.27;;;;;;;8.07;94.76;103578.69;5034136;28;20195;-80
2021/12/18 11:40:59;;;;;;;16.27;10.10;;;;;;;8.07;95.26;103566.81;5027489;28;20217;-79
2021/12/18 11:43:40;;;;;;;21.83;9.77;;;;;;;8.09;94.63;103572.94;5027750;28;20606;-78
2021/12/18 11:46:32;;;;;;;17.23;8.70;;;;;;;8.11;94.78;103568.81;5026896;28;20174;-77
2021/12/18 11:49:10;;;;;;;16.97;8.67;;;;;;;8.11;94.94;103558.59;5027071;28;20284;-77
2021/12/18 11:51:37;;;;;;;19.00;9.33;;;;;;;8.11;94.24;103552.63;5048841;28;20204;-80
2021/12/18 11:54:05;;;;;;;16.63;9.13;;;;;;;8.13;95.06;103557.06;5034088;28;20320;-79
2021/12/18 11:56:49;;;;;;;20.77;9.40;;;;;;;8.16;94.74;103553.84;5043123;28;20218;-79
2021/12/18 11:59:39;;;;;;;19.93;9.57;;;;;;;8.16;94.45;103549.59;5040411;28;20272;-79
2021/12/18 12:02:04;;;;;;;19.97;10.00;;;;;;;8.21;94.46;103547.44;5059958;28;20184;-80
2021/12/18 12:05:03;;;;;;;21.70;9.37;;;;;;;8.25;94.92;103539.22;5082797;28;20212;-80
2021/12/18 12:07:29;;;;;;;20.90;10.27;;;;;;;8.27;94.45;103540.22;5037843;28;20213;-79
2021/12/18 12:10:21;;;;;;;18.90;10.20;;;;;;;8.29;93.89;103538.69;5037685;28;20190;-80
2021/12/18 12:12:55;;;;;;;22.27;10.87;;;;;;;8.30;94.25;103533.66;5033423;28;20210;-79
2021/12/18 12:19:05;;;;;;;19.70;9.53;;;;;;;8.35;94.15;103541.66;5081852;28;20227;-78